Lamar University, Texas
Current Conditions -  °F | °C
As of 10:15 PM on Sunday 23 Nov 2014 (Local Time) from KBMT Reporting Station
Clear Clear  
Wind Chill: 63°   Ceiling: Unl
Heat Index: 63°   Visibility: 10mi
Dew Point: 60°   Wind: 6mph
Humidity: 91%   Direction: 220°SW
Pressure: 29.69"   Gusts: NA
Location:  30.0543°N, 94.1762°W
Report Text: KBMT 240415Z AUTO 22005KT 10SM CLR 17/16 A2969 RMK AO2 T01700156
Loading
Personal Weather Stations






























Interactive Weather Map New forecast layout! Learn more

10-Day Weather Forecast

Advertisements
Track Severe Weather on mobile